sensor_id;sensor_type;location;lat;lon;timestamp;temperature;humidity
22968;DHT22;11650;48.106;-1.696;2022-07-30T00:01:07;19.80;99.90
22968;DHT22;11650;48.106;-1.696;2022-07-30T00:03:33;19.80;99.90
22968;DHT22;11650;48.106;-1.696;2022-07-30T00:05:58;19.80;99.90
22968;DHT22;11650;48.106;-1.696;2022-07-30T00:08:24;19.90;99.90
22968;DHT22;11650;48.106;-1.696;2022-07-30T00:10:50;20.00;99.90
22968;DHT22;11650;48.106;-1.696;2022-07-30T00:13:17;20.00;99.90
22968;DHT22;11650;48.106;-1.696;2022-07-30T00:15:43;19.80;99.90
22968;DHT22;11650;48.106;-1.696;2022-07-30T00:18:09;19.60;99.90
22968;DHT22;11650;48.106;-1.696;2022-07-30T00:20:34;19.50;99.90
22968;DHT22;11650;48.106;-1.696;2022-07-30T00:23:03;19.60;99.90
22968;DHT22;11650;48.106;-1.696;2022-07-30T00:25:29;19.60;99.90
22968;DHT22;11650;48.106;-1.696;2022-07-30T00:27:55;19.70;99.90
22968;DHT22;11650;48.106;-1.696;2022-07-30T00:30:21;19.70;99.90
22968;DHT22;11650;48.106;-1.696;2022-07-30T00:32:47;19.70;99.90
22968;DHT22;11650;48.106;-1.696;2022-07-30T00:35:12;19.40;99.90
22968;DHT22;11650;48.106;-1.696;2022-07-30T00:37:38;19.40;99.90
22968;DHT22;11650;48.106;-1.696;2022-07-30T00:40:06;19.40;99.90
22968;DHT22;11650;48.106;-1.696;2022-07-30T00:42:41;19.50;99.90
22968;DHT22;11650;48.106;-1.696;2022-07-30T00:45:08;19.60;99.90
22968;DHT22;11650;48.106;-1.696;2022-07-30T00:47:35;19.40;99.90
22968;DHT22;11650;48.106;-1.696;2022-07-30T00:50:01;19.30;99.90
22968;DHT22;11650;48.106;-1.696;2022-07-30T00:52:30;19.20;99.90
22968;DHT22;11650;48.106;-1.696;2022-07-30T00:54:56;19.20;99.90
22968;DHT22;11650;48.106;-1.696;2022-07-30T00:57:22;19.20;99.90
22968;DHT22;11650;48.106;-1.696;2022-07-30T00:59:48;19.10;99.90
22968;DHT22;11650;48.106;-1.696;2022-07-30T01:02:14;19.10;99.90
22968;DHT22;11650;48.106;-1.696;2022-07-30T01:04:39;19.10;99.90
22968;DHT22;11650;48.106;-1.696;2022-07-30T01:07:05;19.00;99.90
22968;DHT22;11650;48.106;-1.696;2022-07-30T01:09:30;19.10;99.90
22968;DHT22;11650;48.106;-1.696;2022-07-30T01:11:57;19.20;99.90
22968;DHT22;11650;48.106;-1.696;2022-07-30T01:14:23;19.20;99.90
22968;DHT22;11650;48.106;-1.696;2022-07-30T01:16:49;19.20;99.90
22968;DHT22;11650;48.106;-1.696;2022-07-30T01:19:24;19.20;99.90
22968;DHT22;11650;48.106;-1.696;2022-07-30T01:22:25;19.30;99.90
22968;DHT22;11650;48.106;-1.696;2022-07-30T01:27:54;19.00;99.90
22968;DHT22;11650;48.106;-1.696;2022-07-30T01:30:24;18.90;99.90
22968;DHT22;11650;48.106;-1.696;2022-07-30T01:32:52;19.00;99.90
22968;DHT22;11650;48.106;-1.696;2022-07-30T01:35:21;19.00;99.90
22968;DHT22;11650;48.106;-1.696;2022-07-30T01:37:48;19.00;99.90
22968;DHT22;11650;48.106;-1.696;2022-07-30T01:40:16;19.10;99.90
22968;DHT22;11650;48.106;-1.696;2022-07-30T01:42:43;19.00;99.90
22968;DHT22;11650;48.106;-1.696;2022-07-30T01:45:10;18.90;99.90
22968;DHT22;11650;48.106;-1.696;2022-07-30T01:47:38;19.00;99.90
22968;DHT22;11650;48.106;-1.696;2022-07-30T01:50:09;18.90;99.90
22968;DHT22;11650;48.106;-1.696;2022-07-30T01:52:39;18.80;99.90
22968;DHT22;11650;48.106;-1.696;2022-07-30T01:55:08;18.90;99.90
22968;DHT22;11650;48.106;-1.696;2022-07-30T01:57:36;18.80;99.90
22968;DHT22;11650;48.106;-1.696;2022-07-30T02:00:05;18.90;99.90
22968;DHT22;11650;48.106;-1.696;2022-07-30T02:02:33;18.80;99.90
22968;DHT22;11650;48.106;-1.696;2022-07-30T02:04:59;18.80;99.90
22968;DHT22;11650;48.106;-1.696;2022-07-30T02:10:18;18.70;99.90
22968;DHT22;11650;48.106;-1.696;2022-07-30T02:12:50;18.50;99.90
22968;DHT22;11650;48.106;-1.696;2022-07-30T02:15:25;18.60;99.90
22968;DHT22;11650;48.106;-1.696;2022-07-30T02:17:59;18.70;99.90
22968;DHT22;11650;48.106;-1.696;2022-07-30T02:20:28;18.60;99.90
22968;DHT22;11650;48.106;-1.696;2022-07-30T02:22:59;18.60;99.90
22968;DHT22;11650;48.106;-1.696;2022-07-30T02:25:25;18.50;99.90
22968;DHT22;11650;48.106;-1.696;2022-07-30T02:27:55;18.60;99.90
22968;DHT22;11650;48.106;-1.696;2022-07-30T02:30:24;18.40;99.90
22968;DHT22;11650;48.106;-1.696;2022-07-30T02:32:56;18.40;99.90
22968;DHT22;11650;48.106;-1.696;2022-07-30T02:35:24;18.40;99.90
22968;DHT22;11650;48.106;-1.696;2022-07-30T02:37:53;18.40;99.90
22968;DHT22;11650;48.106;-1.696;2022-07-30T02:40:20;18.40;99.90
22968;DHT22;11650;48.106;-1.696;2022-07-30T02:42:50;18.40;99.90
22968;DHT22;11650;48.106;-1.696;2022-07-30T02:45:17;18.50;99.90
22968;DHT22;11650;48.106;-1.696;2022-07-30T02:47:45;18.50;99.90
22968;DHT22;11650;48.106;-1.696;2022-07-30T02:50:13;18.50;99.90
22968;DHT22;11650;48.106;-1.696;2022-07-30T02:52:40;18.50;99.90
22968;DHT22;11650;48.106;-1.696;2022-07-30T02:55:08;18.50;99.90
22968;DHT22;11650;48.106;-1.696;2022-07-30T02:57:39;18.50;99.90
22968;DHT22;11650;48.106;-1.696;2022-07-30T03:00:07;18.60;99.90
22968;DHT22;11650;48.106;-1.696;2022-07-30T03:02:34;18.50;99.90
22968;DHT22;11650;48.106;-1.696;2022-07-30T03:05:02;18.40;99.90
22968;DHT22;11650;48.106;-1.696;2022-07-30T03:07:29;18.50;99.90
22968;DHT22;11650;48.106;-1.696;2022-07-30T03:09:55;18.50;99.90
22968;DHT22;11650;48.106;-1.696;2022-07-30T03:12:23;18.60;99.90
22968;DHT22;11650;48.106;-1.696;2022-07-30T03:14:50;18.50;99.90
22968;DHT22;11650;48.106;-1.696;2022-07-30T03:17:17;18.40;99.90
22968;DHT22;11650;48.106;-1.696;2022-07-30T03:19:44;18.40;99.90
22968;DHT22;11650;48.106;-1.696;2022-07-30T03:22:14;18.40;99.90
22968;DHT22;11650;48.106;-1.696;2022-07-30T03:24:42;18.50;99.90
22968;DHT22;11650;48.106;-1.696;2022-07-30T03:27:08;18.40;99.90
22968;DHT22;11650;48.106;-1.696;2022-07-30T03:29:36;18.30;99.90
22968;DHT22;11650;48.106;-1.696;2022-07-30T03:32:03;18.40;99.90
22968;DHT22;11650;48.106;-1.696;2022-07-30T03:34:32;18.50;99.90
22968;DHT22;11650;48.106;-1.696;2022-07-30T03:36:58;18.50;99.90
22968;DHT22;11650;48.106;-1.696;2022-07-30T03:39:24;18.50;99.90
22968;DHT22;11650;48.106;-1.696;2022-07-30T03:41:53;18.40;99.90
22968;DHT22;11650;48.106;-1.696;2022-07-30T03:44:20;18.50;99.90
22968;DHT22;11650;48.106;-1.696;2022-07-30T03:46:47;18.40;99.90
22968;DHT22;11650;48.106;-1.696;2022-07-30T03:49:15;18.40;99.90
22968;DHT22;11650;48.106;-1.696;2022-07-30T03:51:41;18.40;99.90
22968;DHT22;11650;48.106;-1.696;2022-07-30T03:54:07;18.30;99.90
22968;DHT22;11650;48.106;-1.696;2022-07-30T03:56:35;18.30;99.90
22968;DHT22;11650;48.106;-1.696;2022-07-30T03:59:02;18.30;99.90
22968;DHT22;11650;48.106;-1.696;2022-07-30T04:01:28;18.30;99.90
22968;DHT22;11650;48.106;-1.696;2022-07-30T04:03:53;18.30;99.90
22968;DHT22;11650;48.106;-1.696;2022-07-30T04:06:19;18.30;99.90
22968;DHT22;11650;48.106;-1.696;2022-07-30T04:08:45;18.30;99.90
22968;DHT22;11650;48.106;-1.696;2022-07-30T04:11:10;18.30;99.90
22968;DHT22;11650;48.106;-1.696;2022-07-30T04:13:36;18.20;99.90
22968;DHT22;11650;48.106;-1.696;2022-07-30T04:18:36;18.10;99.90
22968;DHT22;11650;48.106;-1.696;2022-07-30T04:21:04;18.10;99.90
22968;DHT22;11650;48.106;-1.696;2022-07-30T04:23:32;18.10;99.90
22968;DHT22;11650;48.106;-1.696;2022-07-30T04:26:00;18.00;99.90
22968;DHT22;11650;48.106;-1.696;2022-07-30T04:28:26;18.10;99.90
22968;DHT22;11650;48.106;-1.696;2022-07-30T04:30:53;18.10;99.90
22968;DHT22;11650;48.106;-1.696;2022-07-30T04:33:19;18.10;99.90
22968;DHT22;11650;48.106;-1.696;2022-07-30T04:35:44;18.10;99.90
22968;DHT22;11650;48.106;-1.696;2022-07-30T04:38:10;18.10;99.90
22968;DHT22;11650;48.106;-1.696;2022-07-30T04:40:39;18.10;99.90
22968;DHT22;11650;48.106;-1.696;2022-07-30T04:43:05;18.10;99.90
22968;DHT22;11650;48.106;-1.696;2022-07-30T04:45:31;18.10;99.90
22968;DHT22;11650;48.106;-1.696;2022-07-30T04:47:56;18.10;99.90
22968;DHT22;11650;48.106;-1.696;2022-07-30T04:50:24;18.00;99.90
22968;DHT22;11650;48.106;-1.696;2022-07-30T04:52:53;18.00;99.90
22968;DHT22;11650;48.106;-1.696;2022-07-30T04:55:20;18.00;99.90
22968;DHT22;11650;48.106;-1.696;2022-07-30T04:57:49;17.90;99.90
22968;DHT22;11650;48.106;-1.696;2022-07-30T05:00:16;17.90;99.90
22968;DHT22;11650;48.106;-1.696;2022-07-30T05:02:43;17.80;99.90
22968;DHT22;11650;48.106;-1.696;2022-07-30T05:05:14;17.90;99.90
22968;DHT22;11650;48.106;-1.696;2022-07-30T05:07:41;18.00;99.90
22968;DHT22;11650;48.106;-1.696;2022-07-30T05:10:08;18.00;99.90
22968;DHT22;11650;48.106;-1.696;2022-07-30T05:12:35;18.10;99.90
22968;DHT22;11650;48.106;-1.696;2022-07-30T05:15:08;18.00;99.90
22968;DHT22;11650;48.106;-1.696;2022-07-30T05:17:35;18.00;99.90
22968;DHT22;11650;48.106;-1.696;2022-07-30T05:20:01;18.00;99.90
22968;DHT22;11650;48.106;-1.696;2022-07-30T05:22:27;18.10;99.90
22968;DHT22;11650;48.106;-1.696;2022-07-30T05:24:57;18.20;99.90
22968;DHT22;11650;48.106;-1.696;2022-07-30T05:27:23;18.20;99.90
22968;DHT22;11650;48.106;-1.696;2022-07-30T05:29:49;18.20;99.90
22968;DHT22;11650;48.106;-1.696;2022-07-30T05:32:14;18.30;99.90
22968;DHT22;11650;48.106;-1.696;2022-07-30T05:34:40;18.20;99.90
22968;DHT22;11650;48.106;-1.696;2022-07-30T05:37:05;18.10;99.90
22968;DHT22;11650;48.106;-1.696;2022-07-30T05:39:31;18.20;99.90
22968;DHT22;11650;48.106;-1.696;2022-07-30T05:41:57;18.20;99.90
22968;DHT22;11650;48.106;-1.696;2022-07-30T05:44:22;18.20;99.90
22968;DHT22;11650;48.106;-1.696;2022-07-30T05:46:48;18.20;99.90
22968;DHT22;11650;48.106;-1.696;2022-07-30T05:49:14;18.30;99.90
22968;DHT22;11650;48.106;-1.696;2022-07-30T05:51:40;18.20;99.90
22968;DHT22;11650;48.106;-1.696;2022-07-30T05:54:06;18.30;99.90
22968;DHT22;11650;48.106;-1.696;2022-07-30T05:56:31;18.30;99.90
22968;DHT22;11650;48.106;-1.696;2022-07-30T05:58:57;18.40;99.90
22968;DHT22;11650;48.106;-1.696;2022-07-30T06:01:23;18.30;99.90
22968;DHT22;11650;48.106;-1.696;2022-07-30T06:03:48;18.50;99.90
22968;DHT22;11650;48.106;-1.696;2022-07-30T06:06:14;18.60;99.90
22968;DHT22;11650;48.106;-1.696;2022-07-30T06:08:40;18.60;99.90
22968;DHT22;11650;48.106;-1.696;2022-07-30T06:11:05;18.50;99.90
22968;DHT22;11650;48.106;-1.696;2022-07-30T06:13:33;18.70;99.90
22968;DHT22;11650;48.106;-1.696;2022-07-30T06:15:59;18.70;99.90
22968;DHT22;11650;48.106;-1.696;2022-07-30T06:18:24;18.80;99.90
22968;DHT22;11650;48.106;-1.696;2022-07-30T06:20:51;18.80;99.90
22968;DHT22;11650;48.106;-1.696;2022-07-30T06:23:19;18.80;99.90
22968;DHT22;11650;48.106;-1.696;2022-07-30T06:25:46;18.90;99.90
22968;DHT22;11650;48.106;-1.696;2022-07-30T06:28:13;18.90;99.90
22968;DHT22;11650;48.106;-1.696;2022-07-30T06:30:38;19.10;99.90
22968;DHT22;11650;48.106;-1.696;2022-07-30T06:33:05;19.00;99.90
22968;DHT22;11650;48.106;-1.696;2022-07-30T06:35:31;19.00;99.90
22968;DHT22;11650;48.106;-1.696;2022-07-30T06:37:59;19.20;99.90
22968;DHT22;11650;48.106;-1.696;2022-07-30T06:40:24;19.30;99.90
22968;DHT22;11650;48.106;-1.696;2022-07-30T06:42:50;19.30;99.90
22968;DHT22;11650;48.106;-1.696;2022-07-30T06:45:16;19.30;99.90
22968;DHT22;11650;48.106;-1.696;2022-07-30T06:47:41;19.50;99.90
22968;DHT22;11650;48.106;-1.696;2022-07-30T06:50:08;19.50;99.90
22968;DHT22;11650;48.106;-1.696;2022-07-30T06:52:33;19.60;99.90
22968;DHT22;11650;48.106;-1.696;2022-07-30T06:54:59;19.60;99.90
22968;DHT22;11650;48.106;-1.696;2022-07-30T06:57:25;19.80;99.90
22968;DHT22;11650;48.106;-1.696;2022-07-30T06:59:51;20.00;99.90
22968;DHT22;11650;48.106;-1.696;2022-07-30T07:02:17;20.10;99.90
22968;DHT22;11650;48.106;-1.696;2022-07-30T07:04:42;20.00;99.90
22968;DHT22;11650;48.106;-1.696;2022-07-30T07:07:08;20.00;99.90
22968;DHT22;11650;48.106;-1.696;2022-07-30T07:09:34;20.00;99.90
22968;DHT22;11650;48.106;-1.696;2022-07-30T07:11:59;20.10;99.90
22968;DHT22;11650;48.106;-1.696;2022-07-30T07:14:25;20.20;99.90
22968;DHT22;11650;48.106;-1.696;2022-07-30T07:16:51;20.30;99.90
22968;DHT22;11650;48.106;-1.696;2022-07-30T07:19:16;20.30;99.90
22968;DHT22;11650;48.106;-1.696;2022-07-30T07:21:42;20.40;99.90
22968;DHT22;11650;48.106;-1.696;2022-07-30T07:24:08;20.50;99.90
22968;DHT22;11650;48.106;-1.696;2022-07-30T07:26:34;20.60;99.90
22968;DHT22;11650;48.106;-1.696;2022-07-30T07:28:59;20.60;99.90
22968;DHT22;11650;48.106;-1.696;2022-07-30T07:31:25;20.60;99.90
22968;DHT22;11650;48.106;-1.696;2022-07-30T07:33:51;20.70;99.90
22968;DHT22;11650;48.106;-1.696;2022-07-30T07:36:19;20.80;99.90
22968;DHT22;11650;48.106;-1.696;2022-07-30T07:38:45;20.90;99.90
22968;DHT22;11650;48.106;-1.696;2022-07-30T07:41:11;21.00;99.90
22968;DHT22;11650;48.106;-1.696;2022-07-30T07:43:37;20.90;99.90
22968;DHT22;11650;48.106;-1.696;2022-07-30T07:46:02;21.00;99.90
22968;DHT22;11650;48.106;-1.696;2022-07-30T07:48:28;20.90;99.90
22968;DHT22;11650;48.106;-1.696;2022-07-30T07:50:54;21.00;99.90
22968;DHT22;11650;48.106;-1.696;2022-07-30T07:53:20;21.10;99.90
22968;DHT22;11650;48.106;-1.696;2022-07-30T07:55:45;21.20;99.90
22968;DHT22;11650;48.106;-1.696;2022-07-30T07:58:11;21.10;99.90
22968;DHT22;11650;48.106;-1.696;2022-07-30T08:00:39;21.20;99.90
22968;DHT22;11650;48.106;-1.696;2022-07-30T08:03:05;21.10;99.90
22968;DHT22;11650;48.106;-1.696;2022-07-30T08:05:31;21.10;99.90
22968;DHT22;11650;48.106;-1.696;2022-07-30T08:07:57;21.20;99.90
22968;DHT22;11650;48.106;-1.696;2022-07-30T08:10:23;21.30;99.90
22968;DHT22;11650;48.106;-1.696;2022-07-30T08:12:48;21.30;99.90
22968;DHT22;11650;48.106;-1.696;2022-07-30T08:15:14;21.40;99.90
22968;DHT22;11650;48.106;-1.696;2022-07-30T08:17:41;21.30;99.90
22968;DHT22;11650;48.106;-1.696;2022-07-30T08:20:08;21.30;99.90
22968;DHT22;11650;48.106;-1.696;2022-07-30T08:22:34;21.60;99.90
22968;DHT22;11650;48.106;-1.696;2022-07-30T08:25:00;21.80;99.90
22968;DHT22;11650;48.106;-1.696;2022-07-30T08:27:25;21.80;99.90
22968;DHT22;11650;48.106;-1.696;2022-07-30T08:29:51;21.90;99.90
22968;DHT22;11650;48.106;-1.696;2022-07-30T08:32:17;21.80;99.90
22968;DHT22;11650;48.106;-1.696;2022-07-30T08:34:42;22.10;99.90
22968;DHT22;11650;48.106;-1.696;2022-07-30T08:37:08;22.00;99.90
22968;DHT22;11650;48.106;-1.696;2022-07-30T08:39:34;22.00;99.90
22968;DHT22;11650;48.106;-1.696;2022-07-30T08:42:01;22.10;99.90
22968;DHT22;11650;48.106;-1.696;2022-07-30T08:44:28;22.20;99.90
22968;DHT22;11650;48.106;-1.696;2022-07-30T08:46:55;22.10;99.90
22968;DHT22;11650;48.106;-1.696;2022-07-30T08:49:22;22.20;99.90
22968;DHT22;11650;48.106;-1.696;2022-07-30T08:51:51;22.30;99.90
22968;DHT22;11650;48.106;-1.696;2022-07-30T08:54:18;22.50;99.90
22968;DHT22;11650;48.106;-1.696;2022-07-30T08:56:44;22.30;99.90
22968;DHT22;11650;48.106;-1.696;2022-07-30T08:59:10;22.30;99.90
22968;DHT22;11650;48.106;-1.696;2022-07-30T09:01:36;22.40;99.90
22968;DHT22;11650;48.106;-1.696;2022-07-30T09:04:02;22.60;99.90
22968;DHT22;11650;48.106;-1.696;2022-07-30T09:06:28;22.80;99.90
22968;DHT22;11650;48.106;-1.696;2022-07-30T09:08:54;22.60;99.90
22968;DHT22;11650;48.106;-1.696;2022-07-30T09:11:20;22.80;99.90
22968;DHT22;11650;48.106;-1.696;2022-07-30T09:13:46;22.80;99.90
22968;DHT22;11650;48.106;-1.696;2022-07-30T09:16:23;22.90;99.90
22968;DHT22;11650;48.106;-1.696;2022-07-30T09:18:50;23.10;99.90
22968;DHT22;11650;48.106;-1.696;2022-07-30T09:21:21;23.30;99.90
22968;DHT22;11650;48.106;-1.696;2022-07-30T09:23:58;23.40;99.90
22968;DHT22;11650;48.106;-1.696;2022-07-30T09:26:24;23.20;99.90
22968;DHT22;11650;48.106;-1.696;2022-07-30T09:28:49;23.20;99.90
22968;DHT22;11650;48.106;-1.696;2022-07-30T09:31:16;23.20;99.90
22968;DHT22;11650;48.106;-1.696;2022-07-30T09:33:43;23.00;99.90
22968;DHT22;11650;48.106;-1.696;2022-07-30T09:36:15;23.10;99.90
22968;DHT22;11650;48.106;-1.696;2022-07-30T09:38:43;23.30;99.90
22968;DHT22;11650;48.106;-1.696;2022-07-30T09:41:10;23.40;99.90
22968;DHT22;11650;48.106;-1.696;2022-07-30T09:43:44;23.50;99.90
22968;DHT22;11650;48.106;-1.696;2022-07-30T09:46:11;23.60;99.90
22968;DHT22;11650;48.106;-1.696;2022-07-30T09:48:37;23.70;99.90
22968;DHT22;11650;48.106;-1.696;2022-07-30T09:51:02;23.80;99.90
22968;DHT22;11650;48.106;-1.696;2022-07-30T09:53:28;23.70;99.90
22968;DHT22;11650;48.106;-1.696;2022-07-30T09:55:54;24.00;99.90
22968;DHT22;11650;48.106;-1.696;2022-07-30T09:58:20;23.90;99.90
22968;DHT22;11650;48.106;-1.696;2022-07-30T10:00:46;24.00;99.90
22968;DHT22;11650;48.106;-1.696;2022-07-30T10:03:20;24.00;99.90
22968;DHT22;11650;48.106;-1.696;2022-07-30T10:05:54;24.20;99.90
22968;DHT22;11650;48.106;-1.696;2022-07-30T10:08:43;24.80;99.90
22968;DHT22;11650;48.106;-1.696;2022-07-30T10:11:12;24.60;99.90
22968;DHT22;11650;48.106;-1.696;2022-07-30T10:13:38;24.40;99.90
22968;DHT22;11650;48.106;-1.696;2022-07-30T10:16:05;24.50;99.90
22968;DHT22;11650;48.106;-1.696;2022-07-30T10:18:31;24.70;99.90
22968;DHT22;11650;48.106;-1.696;2022-07-30T10:20:58;25.20;99.90
22968;DHT22;11650;48.106;-1.696;2022-07-30T10:23:26;25.00;99.90
22968;DHT22;11650;48.106;-1.696;2022-07-30T10:26:00;25.00;99.90
22968;DHT22;11650;48.106;-1.696;2022-07-30T10:28:28;24.90;99.90
22968;DHT22;11650;48.106;-1.696;2022-07-30T10:30:55;24.80;99.90
22968;DHT22;11650;48.106;-1.696;2022-07-30T10:33:23;24.90;99.90
22968;DHT22;11650;48.106;-1.696;2022-07-30T10:35:49;24.80;99.90
22968;DHT22;11650;48.106;-1.696;2022-07-30T10:38:17;24.90;99.90
22968;DHT22;11650;48.106;-1.696;2022-07-30T10:41:10;25.40;99.90
22968;DHT22;11650;48.106;-1.696;2022-07-30T10:49:10;26.10;99.90
22968;DHT22;11650;48.106;-1.696;2022-07-30T10:52:02;25.40;99.90
22968;DHT22;11650;48.106;-1.696;2022-07-30T10:54:42;25.50;99.90
22968;DHT22;11650;48.106;-1.696;2022-07-30T10:57:19;25.90;99.90
22968;DHT22;11650;48.106;-1.696;2022-07-30T11:02:22;25.80;99.90
22968;DHT22;11650;48.106;-1.696;2022-07-30T11:04:48;25.60;99.90
22968;DHT22;11650;48.106;-1.696;2022-07-30T11:09:46;25.80;99.90
22968;DHT22;11650;48.106;-1.696;2022-07-30T11:12:13;25.70;99.90
22968;DHT22;11650;48.106;-1.696;2022-07-30T11:17:11;26.10;99.90
22968;DHT22;11650;48.106;-1.696;2022-07-30T11:22:29;26.90;99.90
22968;DHT22;11650;48.106;-1.696;2022-07-30T11:25:37;27.00;99.90
22968;DHT22;11650;48.106;-1.696;2022-07-30T11:27:57;26.70;99.90
22968;DHT22;11650;48.106;-1.696;2022-07-30T11:32:55;26.70;99.90
22968;DHT22;11650;48.106;-1.696;2022-07-30T11:35:25;26.80;99.90
22968;DHT22;11650;48.106;-1.696;2022-07-30T11:38:12;26.80;99.90
22968;DHT22;11650;48.106;-1.696;2022-07-30T11:43:22;26.90;99.90
22968;DHT22;11650;48.106;-1.696;2022-07-30T11:46:05;27.10;99.90
22968;DHT22;11650;48.106;-1.696;2022-07-30T11:48:31;27.50;99.90
22968;DHT22;11650;48.106;-1.696;2022-07-30T11:50:57;27.30;99.90
22968;DHT22;11650;48.106;-1.696;2022-07-30T11:53:23;27.20;99.90
22968;DHT22;11650;48.106;-1.696;2022-07-30T11:55:51;27.30;99.90
22968;DHT22;11650;48.106;-1.696;2022-07-30T11:58:32;27.30;99.90
22968;DHT22;11650;48.106;-1.696;2022-07-30T12:01:00;27.30;99.90
22968;DHT22;11650;48.106;-1.696;2022-07-30T12:03:27;27.30;99.90
22968;DHT22;11650;48.106;-1.696;2022-07-30T12:05:53;27.70;99.90
22968;DHT22;11650;48.106;-1.696;2022-07-30T12:08:20;28.00;99.90
22968;DHT22;11650;48.106;-1.696;2022-07-30T12:10:57;27.50;99.90
22968;DHT22;11650;48.106;-1.696;2022-07-30T12:13:24;28.50;99.90
22968;DHT22;11650;48.106;-1.696;2022-07-30T12:15:50;28.30;99.90
22968;DHT22;11650;48.106;-1.696;2022-07-30T12:18:27;28.10;99.90
22968;DHT22;11650;48.106;-1.696;2022-07-30T12:21:01;28.20;99.90
22968;DHT22;11650;48.106;-1.696;2022-07-30T12:23:28;28.50;99.90
22968;DHT22;11650;48.106;-1.696;2022-07-30T12:25:55;29.00;99.90
22968;DHT22;11650;48.106;-1.696;2022-07-30T12:28:25;29.20;99.90
22968;DHT22;11650;48.106;-1.696;2022-07-30T12:30:53;28.80;99.90
22968;DHT22;11650;48.106;-1.696;2022-07-30T12:33:19;28.50;99.90
22968;DHT22;11650;48.106;-1.696;2022-07-30T12:35:46;28.30;99.90
22968;DHT22;11650;48.106;-1.696;2022-07-30T12:38:13;28.60;99.90
22968;DHT22;11650;48.106;-1.696;2022-07-30T12:43:17;29.10;99.90
22968;DHT22;11650;48.106;-1.696;2022-07-30T12:45:42;29.20;99.90
22968;DHT22;11650;48.106;-1.696;2022-07-30T12:48:11;29.30;99.90
22968;DHT22;11650;48.106;-1.696;2022-07-30T12:50:37;29.50;99.90
22968;DHT22;11650;48.106;-1.696;2022-07-30T12:53:03;29.60;99.90
22968;DHT22;11650;48.106;-1.696;2022-07-30T12:55:34;29.70;99.90
22968;DHT22;11650;48.106;-1.696;2022-07-30T13:00:30;29.90;99.90
22968;DHT22;11650;48.106;-1.696;2022-07-30T13:02:57;29.90;99.80
22968;DHT22;11650;48.106;-1.696;2022-07-30T13:05:46;30.20;99.70
22968;DHT22;11650;48.106;-1.696;2022-07-30T13:08:12;30.20;99.70
22968;DHT22;11650;48.106;-1.696;2022-07-30T13:10:37;30.20;99.00
22968;DHT22;11650;48.106;-1.696;2022-07-30T13:13:03;30.20;99.00
22968;DHT22;11650;48.106;-1.696;2022-07-30T13:15:29;29.80;99.20
22968;DHT22;11650;48.106;-1.696;2022-07-30T13:17:55;30.10;99.30
22968;DHT22;11650;48.106;-1.696;2022-07-30T13:20:20;31.00;98.50
22968;DHT22;11650;48.106;-1.696;2022-07-30T13:22:46;32.30;97.00
22968;DHT22;11650;48.106;-1.696;2022-07-30T13:25:12;31.90;96.90
22968;DHT22;11650;48.106;-1.696;2022-07-30T13:27:38;31.90;96.90
22968;DHT22;11650;48.106;-1.696;2022-07-30T13:30:04;32.30;96.20
22968;DHT22;11650;48.106;-1.696;2022-07-30T13:32:30;32.70;95.70
22968;DHT22;11650;48.106;-1.696;2022-07-30T13:34:56;33.10;95.40
22968;DHT22;11650;48.106;-1.696;2022-07-30T13:37:21;33.60;94.00
22968;DHT22;11650;48.106;-1.696;2022-07-30T13:39:47;33.20;94.40
22968;DHT22;11650;48.106;-1.696;2022-07-30T13:42:13;32.80;94.70
22968;DHT22;11650;48.106;-1.696;2022-07-30T13:44:39;34.80;93.30
22968;DHT22;11650;48.106;-1.696;2022-07-30T13:47:05;33.70;93.10
22968;DHT22;11650;48.106;-1.696;2022-07-30T13:49:33;33.00;93.20
22968;DHT22;11650;48.106;-1.696;2022-07-30T13:52:00;31.90;94.30
22968;DHT22;11650;48.106;-1.696;2022-07-30T13:54:26;31.70;94.60
22968;DHT22;11650;48.106;-1.696;2022-07-30T13:56:53;32.60;94.40
22968;DHT22;11650;48.106;-1.696;2022-07-30T13:59:19;33.70;93.50
22968;DHT22;11650;48.106;-1.696;2022-07-30T14:01:44;34.80;92.50
22968;DHT22;11650;48.106;-1.696;2022-07-30T14:04:10;35.10;92.00
22968;DHT22;11650;48.106;-1.696;2022-07-30T14:06:36;34.60;91.60
22968;DHT22;11650;48.106;-1.696;2022-07-30T14:09:01;34.30;91.90
22968;DHT22;11650;48.106;-1.696;2022-07-30T14:11:27;35.00;91.30
22968;DHT22;11650;48.106;-1.696;2022-07-30T14:13:53;35.40;90.70
22968;DHT22;11650;48.106;-1.696;2022-07-30T14:16:19;35.40;90.40
22968;DHT22;11650;48.106;-1.696;2022-07-30T14:18:45;35.20;90.40
22968;DHT22;11650;48.106;-1.696;2022-07-30T14:21:11;35.50;89.50
22968;DHT22;11650;48.106;-1.696;2022-07-30T14:23:37;34.60;90.50
22968;DHT22;11650;48.106;-1.696;2022-07-30T14:26:03;34.80;90.70
22968;DHT22;11650;48.106;-1.696;2022-07-30T14:28:29;34.60;91.10
22968;DHT22;11650;48.106;-1.696;2022-07-30T14:30:54;34.50;91.20
22968;DHT22;11650;48.106;-1.696;2022-07-30T14:33:20;35.60;90.60
22968;DHT22;11650;48.106;-1.696;2022-07-30T14:35:46;36.00;88.90
22968;DHT22;11650;48.106;-1.696;2022-07-30T14:38:11;37.50;87.50
22968;DHT22;11650;48.106;-1.696;2022-07-30T14:40:37;37.70;86.40
22968;DHT22;11650;48.106;-1.696;2022-07-30T14:43:02;38.10;85.00
22968;DHT22;11650;48.106;-1.696;2022-07-30T14:45:28;37.90;84.40
22968;DHT22;11650;48.106;-1.696;2022-07-30T14:47:54;35.20;87.60
22968;DHT22;11650;48.106;-1.696;2022-07-30T14:50:20;35.50;89.30
22968;DHT22;11650;48.106;-1.696;2022-07-30T14:52:46;35.40;88.60
22968;DHT22;11650;48.106;-1.696;2022-07-30T14:55:13;35.80;88.80
22968;DHT22;11650;48.106;-1.696;2022-07-30T14:57:38;36.40;87.80
22968;DHT22;11650;48.106;-1.696;2022-07-30T15:00:05;35.70;87.10
22968;DHT22;11650;48.106;-1.696;2022-07-30T15:02:35;35.90;87.80
22968;DHT22;11650;48.106;-1.696;2022-07-30T15:05:01;37.30;85.40
22968;DHT22;11650;48.106;-1.696;2022-07-30T15:07:27;37.50;84.50
22968;DHT22;11650;48.106;-1.696;2022-07-30T15:09:53;37.70;84.20
22968;DHT22;11650;48.106;-1.696;2022-07-30T15:12:19;38.50;82.30
22968;DHT22;11650;48.106;-1.696;2022-07-30T15:14:45;37.70;83.50
22968;DHT22;11650;48.106;-1.696;2022-07-30T15:17:12;38.80;82.70
22968;DHT22;11650;48.106;-1.696;2022-07-30T15:19:38;39.20;80.80
22968;DHT22;11650;48.106;-1.696;2022-07-30T15:22:04;36.50;82.10
22968;DHT22;11650;48.106;-1.696;2022-07-30T15:24:31;37.40;82.60
22968;DHT22;11650;48.106;-1.696;2022-07-30T15:26:57;37.70;82.60
22968;DHT22;11650;48.106;-1.696;2022-07-30T15:29:23;38.80;80.70
22968;DHT22;11650;48.106;-1.696;2022-07-30T15:31:51;40.00;79.20
22968;DHT22;11650;48.106;-1.696;2022-07-30T15:34:17;40.00;77.70
22968;DHT22;11650;48.106;-1.696;2022-07-30T15:36:43;40.40;77.60
22968;DHT22;11650;48.106;-1.696;2022-07-30T15:39:08;39.50;79.30
22968;DHT22;11650;48.106;-1.696;2022-07-30T15:41:35;38.60;80.10
22968;DHT22;11650;48.106;-1.696;2022-07-30T15:44:01;38.70;79.10
22968;DHT22;11650;48.106;-1.696;2022-07-30T15:46:27;38.90;79.50
22968;DHT22;11650;48.106;-1.696;2022-07-30T15:48:52;39.40;78.20
22968;DHT22;11650;48.106;-1.696;2022-07-30T15:51:18;39.70;79.60